sensor_id;sensor_type;location;lat;lon;timestamp;temperature;humidity
9723;DHT22;4900;49.306;8.500;2023-05-15T00:00:12;15.85;67.06
9723;DHT22;4900;49.306;8.500;2023-05-15T00:02:38;15.89;67.09
9723;DHT22;4900;49.306;8.500;2023-05-15T00:05:05;15.88;67.34
9723;DHT22;4900;49.306;8.500;2023-05-15T00:07:31;15.87;67.39
9723;DHT22;4900;49.306;8.500;2023-05-15T00:09:56;15.88;67.66
9723;DHT22;4900;49.306;8.500;2023-05-15T00:12:21;15.84;67.66
9723;DHT22;4900;49.306;8.500;2023-05-15T00:14:47;15.81;67.80
9723;DHT22;4900;49.306;8.500;2023-05-15T00:17:12;15.78;67.98
9723;DHT22;4900;49.306;8.500;2023-05-15T00:19:38;15.74;68.12
9723;DHT22;4900;49.306;8.500;2023-05-15T00:22:03;15.68;68.29
9723;DHT22;4900;49.306;8.500;2023-05-15T00:24:29;15.63;68.28
9723;DHT22;4900;49.306;8.500;2023-05-15T00:26:54;15.60;68.35
9723;DHT22;4900;49.306;8.500;2023-05-15T00:29:20;15.59;68.50
9723;DHT22;4900;49.306;8.500;2023-05-15T00:31:45;15.53;68.44
9723;DHT22;4900;49.306;8.500;2023-05-15T00:34:11;15.50;68.48
9723;DHT22;4900;49.306;8.500;2023-05-15T00:36:36;15.44;68.56
9723;DHT22;4900;49.306;8.500;2023-05-15T00:39:02;15.42;68.66
9723;DHT22;4900;49.306;8.500;2023-05-15T00:41:29;15.36;68.76
9723;DHT22;4900;49.306;8.500;2023-05-15T00:43:56;15.33;68.85
9723;DHT22;4900;49.306;8.500;2023-05-15T00:46:23;15.26;69.27
9723;DHT22;4900;49.306;8.500;2023-05-15T00:48:50;15.19;69.49
9723;DHT22;4900;49.306;8.500;2023-05-15T00:51:16;15.18;69.77
9723;DHT22;4900;49.306;8.500;2023-05-15T00:53:42;15.11;69.96
9723;DHT22;4900;49.306;8.500;2023-05-15T00:56:09;15.08;70.00
9723;DHT22;4900;49.306;8.500;2023-05-15T00:58:36;15.04;70.03
9723;DHT22;4900;49.306;8.500;2023-05-15T01:01:02;15.01;70.05
9723;DHT22;4900;49.306;8.500;2023-05-15T01:03:28;15.01;70.00
9723;DHT22;4900;49.306;8.500;2023-05-15T01:05:53;14.95;69.89
9723;DHT22;4900;49.306;8.500;2023-05-15T01:10:47;14.94;69.76
9723;DHT22;4900;49.306;8.500;2023-05-15T01:13:14;14.88;69.67
9723;DHT22;4900;49.306;8.500;2023-05-15T01:15:40;14.87;69.63
9723;DHT22;4900;49.306;8.500;2023-05-15T01:18:06;14.81;69.52
9723;DHT22;4900;49.306;8.500;2023-05-15T01:20:49;14.80;69.52
9723;DHT22;4900;49.306;8.500;2023-05-15T01:23:41;14.74;69.44
9723;DHT22;4900;49.306;8.500;2023-05-15T01:29:22;14.67;69.52
9723;DHT22;4900;49.306;8.500;2023-05-15T01:31:53;14.64;69.44
9723;DHT22;4900;49.306;8.500;2023-05-15T01:34:22;14.60;69.46
9723;DHT22;4900;49.306;8.500;2023-05-15T01:36:52;14.60;69.56
9723;DHT22;4900;49.306;8.500;2023-05-15T01:39:22;14.57;69.67
9723;DHT22;4900;49.306;8.500;2023-05-15T01:42:02;14.56;70.00
9723;DHT22;4900;49.306;8.500;2023-05-15T01:44:31;14.53;70.09
9723;DHT22;4900;49.306;8.500;2023-05-15T01:47:01;14.53;70.30
9723;DHT22;4900;49.306;8.500;2023-05-15T01:49:29;14.52;70.43
9723;DHT22;4900;49.306;8.500;2023-05-15T01:52:05;14.53;70.45
9723;DHT22;4900;49.306;8.500;2023-05-15T01:54:33;14.49;70.56
9723;DHT22;4900;49.306;8.500;2023-05-15T01:56:59;14.48;70.67
9723;DHT22;4900;49.306;8.500;2023-05-15T01:59:25;14.44;70.75
9723;DHT22;4900;49.306;8.500;2023-05-15T02:01:51;14.40;70.79
9723;DHT22;4900;49.306;8.500;2023-05-15T02:04:18;14.37;70.98
9723;DHT22;4900;49.306;8.500;2023-05-15T02:06:44;14.32;71.07
9723;DHT22;4900;49.306;8.500;2023-05-15T02:09:12;14.32;71.09
9723;DHT22;4900;49.306;8.500;2023-05-15T02:11:38;14.30;70.97
9723;DHT22;4900;49.306;8.500;2023-05-15T02:14:04;14.28;70.95
9723;DHT22;4900;49.306;8.500;2023-05-15T02:16:29;14.26;70.89
9723;DHT22;4900;49.306;8.500;2023-05-15T02:18:55;14.22;70.89
9723;DHT22;4900;49.306;8.500;2023-05-15T02:21:21;14.19;71.02
9723;DHT22;4900;49.306;8.500;2023-05-15T02:23:46;14.15;71.02
9723;DHT22;4900;49.306;8.500;2023-05-15T02:32:36;14.08;70.72
9723;DHT22;4900;49.306;8.500;2023-05-15T02:35:49;14.05;70.62
9723;DHT22;4900;49.306;8.500;2023-05-15T02:38:19;13.98;70.59
9723;DHT22;4900;49.306;8.500;2023-05-15T02:40:47;13.97;70.56
9723;DHT22;4900;49.306;8.500;2023-05-15T02:43:16;13.93;70.65
9723;DHT22;4900;49.306;8.500;2023-05-15T02:45:44;13.91;70.73
9723;DHT22;4900;49.306;8.500;2023-05-15T02:48:10;13.87;70.84
9723;DHT22;4900;49.306;8.500;2023-05-15T02:50:36;13.84;70.95
9723;DHT22;4900;49.306;8.500;2023-05-15T02:53:05;13.86;70.92
9723;DHT22;4900;49.306;8.500;2023-05-15T02:55:35;13.81;71.00
9723;DHT22;4900;49.306;8.500;2023-05-15T02:58:01;13.80;71.10
9723;DHT22;4900;49.306;8.500;2023-05-15T03:00:27;13.80;71.18
9723;DHT22;4900;49.306;8.500;2023-05-15T03:02:53;13.78;71.13
9723;DHT22;4900;49.306;8.500;2023-05-15T03:05:19;13.80;71.12
9723;DHT22;4900;49.306;8.500;2023-05-15T03:07:45;13.81;71.13
9723;DHT22;4900;49.306;8.500;2023-05-15T03:10:10;13.80;71.14
9723;DHT22;4900;49.306;8.500;2023-05-15T03:12:37;13.80;71.13
9723;DHT22;4900;49.306;8.500;2023-05-15T03:15:02;13.80;71.28
9723;DHT22;4900;49.306;8.500;2023-05-15T03:17:29;13.80;71.42
9723;DHT22;4900;49.306;8.500;2023-05-15T03:19:55;13.80;71.51
9723;DHT22;4900;49.306;8.500;2023-05-15T03:22:20;13.78;71.49
9723;DHT22;4900;49.306;8.500;2023-05-15T03:24:46;13.84;71.49
9723;DHT22;4900;49.306;8.500;2023-05-15T03:27:11;13.87;71.40
9723;DHT22;4900;49.306;8.500;2023-05-15T03:29:37;13.88;71.34
9723;DHT22;4900;49.306;8.500;2023-05-15T03:32:02;13.88;71.35
9723;DHT22;4900;49.306;8.500;2023-05-15T03:34:28;13.90;71.35
9723;DHT22;4900;49.306;8.500;2023-05-15T03:36:53;13.93;71.29
9723;DHT22;4900;49.306;8.500;2023-05-15T03:39:19;13.98;71.31
9723;DHT22;4900;49.306;8.500;2023-05-15T03:41:44;14.00;71.34
9723;DHT22;4900;49.306;8.500;2023-05-15T03:44:10;14.01;71.39
9723;DHT22;4900;49.306;8.500;2023-05-15T03:46:36;14.02;71.34
9723;DHT22;4900;49.306;8.500;2023-05-15T03:49:03;14.04;71.27
9723;DHT22;4900;49.306;8.500;2023-05-15T03:51:29;14.04;71.23
9723;DHT22;4900;49.306;8.500;2023-05-15T03:53:54;14.05;71.22
9723;DHT22;4900;49.306;8.500;2023-05-15T03:56:20;14.05;71.24
9723;DHT22;4900;49.306;8.500;2023-05-15T03:58:45;14.06;71.15
9723;DHT22;4900;49.306;8.500;2023-05-15T04:01:11;14.09;71.22
9723;DHT22;4900;49.306;8.500;2023-05-15T04:03:36;14.08;71.33
9723;DHT22;4900;49.306;8.500;2023-05-15T04:06:02;14.05;71.41
9723;DHT22;4900;49.306;8.500;2023-05-15T04:08:27;14.04;71.32
9723;DHT22;4900;49.306;8.500;2023-05-15T04:10:52;14.06;71.35
9723;DHT22;4900;49.306;8.500;2023-05-15T04:13:18;14.08;71.41
9723;DHT22;4900;49.306;8.500;2023-05-15T04:15:44;14.06;71.36
9723;DHT22;4900;49.306;8.500;2023-05-15T04:18:10;14.08;71.37
9723;DHT22;4900;49.306;8.500;2023-05-15T04:20:36;14.08;71.34
9723;DHT22;4900;49.306;8.500;2023-05-15T04:23:01;14.11;71.41
9723;DHT22;4900;49.306;8.500;2023-05-15T04:25:28;14.12;71.49
9723;DHT22;4900;49.306;8.500;2023-05-15T04:27:54;14.12;71.57
9723;DHT22;4900;49.306;8.500;2023-05-15T04:30:20;14.12;71.54
9723;DHT22;4900;49.306;8.500;2023-05-15T04:32:45;14.09;71.68
9723;DHT22;4900;49.306;8.500;2023-05-15T04:35:11;14.08;71.89
9723;DHT22;4900;49.306;8.500;2023-05-15T04:37:38;14.08;72.13
9723;DHT22;4900;49.306;8.500;2023-05-15T04:40:05;14.14;72.15
9723;DHT22;4900;49.306;8.500;2023-05-15T04:42:32;14.14;71.96
9723;DHT22;4900;49.306;8.500;2023-05-15T04:44:58;14.19;71.81
9723;DHT22;4900;49.306;8.500;2023-05-15T04:47:24;14.22;71.65
9723;DHT22;4900;49.306;8.500;2023-05-15T04:49:49;14.25;71.56
9723;DHT22;4900;49.306;8.500;2023-05-15T04:52:15;14.29;71.42
9723;DHT22;4900;49.306;8.500;2023-05-15T04:54:41;14.30;71.52
9723;DHT22;4900;49.306;8.500;2023-05-15T04:57:07;14.29;71.74
9723;DHT22;4900;49.306;8.500;2023-05-15T04:59:34;14.33;71.69
9723;DHT22;4900;49.306;8.500;2023-05-15T05:02:00;14.39;71.35
9723;DHT22;4900;49.306;8.500;2023-05-15T05:04:26;14.42;71.26
9723;DHT22;4900;49.306;8.500;2023-05-15T05:06:55;14.49;71.07
9723;DHT22;4900;49.306;8.500;2023-05-15T05:09:20;14.53;71.15
9723;DHT22;4900;49.306;8.500;2023-05-15T05:11:46;14.56;71.06
9723;DHT22;4900;49.306;8.500;2023-05-15T05:14:13;14.63;71.00
9723;DHT22;4900;49.306;8.500;2023-05-15T05:16:39;14.69;70.94
9723;DHT22;4900;49.306;8.500;2023-05-15T05:19:05;14.80;70.87
9723;DHT22;4900;49.306;8.500;2023-05-15T05:21:31;14.94;70.68
9723;DHT22;4900;49.306;8.500;2023-05-15T05:23:57;15.05;70.51
9723;DHT22;4900;49.306;8.500;2023-05-15T05:26:23;15.22;70.26
9723;DHT22;4900;49.306;8.500;2023-05-15T05:28:49;15.33;70.07
9723;DHT22;4900;49.306;8.500;2023-05-15T05:31:14;15.47;69.64
9723;DHT22;4900;49.306;8.500;2023-05-15T05:33:40;15.63;69.28
9723;DHT22;4900;49.306;8.500;2023-05-15T05:36:06;15.81;68.71
9723;DHT22;4900;49.306;8.500;2023-05-15T05:38:32;15.95;68.37
9723;DHT22;4900;49.306;8.500;2023-05-15T05:40:58;16.12;67.75
9723;DHT22;4900;49.306;8.500;2023-05-15T05:43:25;16.25;67.27
9723;DHT22;4900;49.306;8.500;2023-05-15T05:45:51;16.39;66.97
9723;DHT22;4900;49.306;8.500;2023-05-15T05:48:17;16.56;66.49
9723;DHT22;4900;49.306;8.500;2023-05-15T05:50:42;16.72;66.13
9723;DHT22;4900;49.306;8.500;2023-05-15T05:53:08;16.94;65.55
9723;DHT22;4900;49.306;8.500;2023-05-15T05:55:33;17.18;65.09
9723;DHT22;4900;49.306;8.500;2023-05-15T05:57:59;17.50;64.50
9723;DHT22;4900;49.306;8.500;2023-05-15T06:00:25;17.86;63.60
9723;DHT22;4900;49.306;8.500;2023-05-15T06:02:56;18.31;62.50
9723;DHT22;4900;49.306;8.500;2023-05-15T06:05:23;18.91;61.06
9723;DHT22;4900;49.306;8.500;2023-05-15T06:07:50;19.51;59.71
9723;DHT22;4900;49.306;8.500;2023-05-15T06:10:15;20.20;57.97
9723;DHT22;4900;49.306;8.500;2023-05-15T06:12:41;20.81;56.24
9723;DHT22;4900;49.306;8.500;2023-05-15T06:15:06;21.33;54.83
9723;DHT22;4900;49.306;8.500;2023-05-15T06:17:32;21.69;54.02
9723;DHT22;4900;49.306;8.500;2023-05-15T06:19:58;22.31;52.56
9723;DHT22;4900;49.306;8.500;2023-05-15T06:22:23;22.82;51.29
9723;DHT22;4900;49.306;8.500;2023-05-15T06:24:49;23.26;50.51
9723;DHT22;4900;49.306;8.500;2023-05-15T06:27:14;23.16;49.30
9723;DHT22;4900;49.306;8.500;2023-05-15T06:29:40;23.17;49.22
9723;DHT22;4900;49.306;8.500;2023-05-15T06:32:05;22.82;49.28
9723;DHT22;4900;49.306;8.500;2023-05-15T06:34:32;22.81;49.49
9723;DHT22;4900;49.306;8.500;2023-05-15T06:36:57;22.79;49.36
9723;DHT22;4900;49.306;8.500;2023-05-15T06:39:23;22.73;49.41
9723;DHT22;4900;49.306;8.500;2023-05-15T06:41:48;22.55;49.55
9723;DHT22;4900;49.306;8.500;2023-05-15T06:44:14;22.27;49.94
9723;DHT22;4900;49.306;8.500;2023-05-15T06:46:39;22.10;50.52
9723;DHT22;4900;49.306;8.500;2023-05-15T06:49:05;22.12;50.37
9723;DHT22;4900;49.306;8.500;2023-05-15T06:51:30;22.26;50.25
9723;DHT22;4900;49.306;8.500;2023-05-15T06:53:56;22.38;50.07
9723;DHT22;4900;49.306;8.500;2023-05-15T06:56:21;22.76;49.68
9723;DHT22;4900;49.306;8.500;2023-05-15T06:58:47;23.34;48.63
9723;DHT22;4900;49.306;8.500;2023-05-15T07:01:12;23.88;47.57
9723;DHT22;4900;49.306;8.500;2023-05-15T07:03:38;24.20;46.64
9723;DHT22;4900;49.306;8.500;2023-05-15T07:06:04;24.28;46.04
9723;DHT22;4900;49.306;8.500;2023-05-15T07:08:29;24.27;46.09
9723;DHT22;4900;49.306;8.500;2023-05-15T07:10:55;24.12;45.82
9723;DHT22;4900;49.306;8.500;2023-05-15T07:13:20;24.14;45.88
9723;DHT22;4900;49.306;8.500;2023-05-15T07:15:46;24.51;45.54
9723;DHT22;4900;49.306;8.500;2023-05-15T07:18:11;24.58;45.48
9723;DHT22;4900;49.306;8.500;2023-05-15T07:20:37;25.07;44.91
9723;DHT22;4900;49.306;8.500;2023-05-15T07:23:03;25.33;44.26
9723;DHT22;4900;49.306;8.500;2023-05-15T07:25:29;25.34;44.20
9723;DHT22;4900;49.306;8.500;2023-05-15T07:27:55;25.64;43.80
9723;DHT22;4900;49.306;8.500;2023-05-15T07:30:21;26.17;43.24
9723;DHT22;4900;49.306;8.500;2023-05-15T07:32:46;26.40;42.47
9723;DHT22;4900;49.306;8.500;2023-05-15T07:35:12;26.48;42.50
9723;DHT22;4900;49.306;8.500;2023-05-15T07:37:38;26.75;42.28
9723;DHT22;4900;49.306;8.500;2023-05-15T07:40:04;26.67;42.20
9723;DHT22;4900;49.306;8.500;2023-05-15T07:42:30;26.57;42.07
9723;DHT22;4900;49.306;8.500;2023-05-15T07:44:55;26.71;41.90
9723;DHT22;4900;49.306;8.500;2023-05-15T07:47:20;26.75;41.83
9723;DHT22;4900;49.306;8.500;2023-05-15T07:49:46;26.43;41.78
9723;DHT22;4900;49.306;8.500;2023-05-15T07:52:11;27.12;41.10
9723;DHT22;4900;49.306;8.500;2023-05-15T07:54:39;27.71;40.22
9723;DHT22;4900;49.306;8.500;2023-05-15T07:57:06;28.20;39.84
9723;DHT22;4900;49.306;8.500;2023-05-15T07:59:34;28.48;39.24
9723;DHT22;4900;49.306;8.500;2023-05-15T08:02:00;28.51;39.25
9723;DHT22;4900;49.306;8.500;2023-05-15T08:04:25;28.65;38.83
9723;DHT22;4900;49.306;8.500;2023-05-15T08:06:50;28.68;38.31
9723;DHT22;4900;49.306;8.500;2023-05-15T08:09:16;28.75;38.27
9723;DHT22;4900;49.306;8.500;2023-05-15T08:11:42;28.96;37.97
9723;DHT22;4900;49.306;8.500;2023-05-15T08:14:07;29.16;37.67
9723;DHT22;4900;49.306;8.500;2023-05-15T08:16:33;28.65;38.07
9723;DHT22;4900;49.306;8.500;2023-05-15T08:18:59;28.79;38.54
9723;DHT22;4900;49.306;8.500;2023-05-15T08:21:29;29.06;37.94
9723;DHT22;4900;49.306;8.500;2023-05-15T08:23:55;29.41;37.12
9723;DHT22;4900;49.306;8.500;2023-05-15T08:26:21;30.20;36.41
9723;DHT22;4900;49.306;8.500;2023-05-15T08:28:46;30.89;35.83
9723;DHT22;4900;49.306;8.500;2023-05-15T08:31:12;31.69;34.93
9723;DHT22;4900;49.306;8.500;2023-05-15T08:33:37;31.69;34.23
9723;DHT22;4900;49.306;8.500;2023-05-15T08:36:03;32.09;33.73
9723;DHT22;4900;49.306;8.500;2023-05-15T08:38:28;32.75;32.55
9723;DHT22;4900;49.306;8.500;2023-05-15T08:40:57;33.08;32.05
9723;DHT22;4900;49.306;8.500;2023-05-15T08:43:24;33.25;31.38
9723;DHT22;4900;49.306;8.500;2023-05-15T08:45:52;32.86;31.63
9723;DHT22;4900;49.306;8.500;2023-05-15T08:48:18;33.05;31.61
9723;DHT22;4900;49.306;8.500;2023-05-15T08:50:46;32.45;32.04
9723;DHT22;4900;49.306;8.500;2023-05-15T08:53:12;32.50;31.82
9723;DHT22;4900;49.306;8.500;2023-05-15T08:55:39;32.33;32.26
9723;DHT22;4900;49.306;8.500;2023-05-15T08:58:05;32.32;32.12
9723;DHT22;4900;49.306;8.500;2023-05-15T09:00:31;31.96;32.16
9723;DHT22;4900;49.306;8.500;2023-05-15T09:02:58;31.43;32.86
9723;DHT22;4900;49.306;8.500;2023-05-15T09:05:26;31.41;33.17
9723;DHT22;4900;49.306;8.500;2023-05-15T09:07:53;31.12;33.81
9723;DHT22;4900;49.306;8.500;2023-05-15T09:10:19;31.16;33.69
9723;DHT22;4900;49.306;8.500;2023-05-15T09:12:45;31.24;33.77
9723;DHT22;4900;49.306;8.500;2023-05-15T09:15:12;31.38;33.70
9723;DHT22;4900;49.306;8.500;2023-05-15T09:17:40;30.79;34.49
9723;DHT22;4900;49.306;8.500;2023-05-15T09:20:23;30.67;34.95
9723;DHT22;4900;49.306;8.500;2023-05-15T09:22:49;30.60;35.39
9723;DHT22;4900;49.306;8.500;2023-05-15T09:25:31;31.02;34.55
9723;DHT22;4900;49.306;8.500;2023-05-15T09:27:58;30.96;35.39
9723;DHT22;4900;49.306;8.500;2023-05-15T09:30:25;31.19;34.98
9723;DHT22;4900;49.306;8.500;2023-05-15T09:32:51;30.89;34.87
9723;DHT22;4900;49.306;8.500;2023-05-15T09:35:32;30.86;35.10
9723;DHT22;4900;49.306;8.500;2023-05-15T09:37:59;30.96;34.81
9723;DHT22;4900;49.306;8.500;2023-05-15T09:40:27;31.33;34.58
9723;DHT22;4900;49.306;8.500;2023-05-15T09:42:54;31.20;34.12
9723;DHT22;4900;49.306;8.500;2023-05-15T09:45:19;32.27;33.18
9723;DHT22;4900;49.306;8.500;2023-05-15T09:47:45;32.85;32.33
9723;DHT22;4900;49.306;8.500;2023-05-15T09:50:11;33.34;32.06
9723;DHT22;4900;49.306;8.500;2023-05-15T09:52:37;33.81;31.26
9723;DHT22;4900;49.306;8.500;2023-05-15T09:55:04;34.19;31.12
9723;DHT22;4900;49.306;8.500;2023-05-15T09:57:30;34.40;30.74
9723;DHT22;4900;49.306;8.500;2023-05-15T10:00:00;34.83;30.16
9723;DHT22;4900;49.306;8.500;2023-05-15T10:02:29;35.21;29.79
9723;DHT22;4900;49.306;8.500;2023-05-15T10:04:59;35.52;29.73
9723;DHT22;4900;49.306;8.500;2023-05-15T10:07:33;35.54;29.28
9723;DHT22;4900;49.306;8.500;2023-05-15T10:09:59;36.04;29.10
9723;DHT22;4900;49.306;8.500;2023-05-15T10:12:27;36.29;28.50
9723;DHT22;4900;49.306;8.500;2023-05-15T10:14:55;36.67;28.31
9723;DHT22;4900;49.306;8.500;2023-05-15T10:17:21;36.90;27.75
9723;DHT22;4900;49.306;8.500;2023-05-15T10:19:51;36.55;27.36
9723;DHT22;4900;49.306;8.500;2023-05-15T10:22:21;36.94;27.46
9723;DHT22;4900;49.306;8.500;2023-05-15T10:24:51;37.21;27.07
9723;DHT22;4900;49.306;8.500;2023-05-15T10:27:19;37.15;27.19
9723;DHT22;4900;49.306;8.500;2023-05-15T10:29:46;37.13;27.04
9723;DHT22;4900;49.306;8.500;2023-05-15T10:32:12;37.21;26.91
9723;DHT22;4900;49.306;8.500;2023-05-15T10:34:38;37.24;26.11
9723;DHT22;4900;49.306;8.500;2023-05-15T10:37:04;37.34;26.03
9723;DHT22;4900;49.306;8.500;2023-05-15T10:39:31;37.06;26.16
9723;DHT22;4900;49.306;8.500;2023-05-15T10:41:58;37.32;26.06
9723;DHT22;4900;49.306;8.500;2023-05-15T10:44:23;37.06;26.28
9723;DHT22;4900;49.306;8.500;2023-05-15T10:46:50;37.32;26.38
9723;DHT22;4900;49.306;8.500;2023-05-15T10:49:16;37.20;26.16
9723;DHT22;4900;49.306;8.500;2023-05-15T10:51:41;37.28;26.03
9723;DHT22;4900;49.306;8.500;2023-05-15T10:54:07;37.22;25.91
9723;DHT22;4900;49.306;8.500;2023-05-15T10:56:33;37.48;25.96
9723;DHT22;4900;49.306;8.500;2023-05-15T10:59:05;36.95;25.94
9723;DHT22;4900;49.306;8.500;2023-05-15T11:01:34;35.63;27.25
9723;DHT22;4900;49.306;8.500;2023-05-15T11:04:22;35.52;27.00
9723;DHT22;4900;49.306;8.500;2023-05-15T11:06:49;35.12;27.47
9723;DHT22;4900;49.306;8.500;2023-05-15T11:11:59;35.28;26.98
9723;DHT22;4900;49.306;8.500;2023-05-15T11:14:26;35.54;26.40
9723;DHT22;4900;49.306;8.500;2023-05-15T11:19:31;36.17;26.22
9723;DHT22;4900;49.306;8.500;2023-05-15T11:22:20;36.46;26.00
9723;DHT22;4900;49.306;8.500;2023-05-15T11:27:20;36.29;26.36
9723;DHT22;4900;49.306;8.500;2023-05-15T11:30:12;35.28;26.16
9723;DHT22;4900;49.306;8.500;2023-05-15T11:40:50;34.57;27.98
9723;DHT22;4900;49.306;8.500;2023-05-15T11:43:32;34.54;26.91
9723;DHT22;4900;49.306;8.500;2023-05-15T11:48:33;34.86;27.04
9723;DHT22;4900;49.306;8.500;2023-05-15T11:51:03;35.70;26.97
9723;DHT22;4900;49.306;8.500;2023-05-15T11:53:29;36.06;26.88
9723;DHT22;4900;49.306;8.500;2023-05-15T11:55:55;36.59;26.39
9723;DHT22;4900;49.306;8.500;2023-05-15T11:58:23;36.45;25.76
9723;DHT22;4900;49.306;8.500;2023-05-15T12:00:49;36.82;25.50
9723;DHT22;4900;49.306;8.500;2023-05-15T12:03:16;36.70;26.06
9723;DHT22;4900;49.306;8.500;2023-05-15T12:05:42;37.18;25.54
9723;DHT22;4900;49.306;8.500;2023-05-15T12:08:11;36.83;25.44
9723;DHT22;4900;49.306;8.500;2023-05-15T12:10:44;36.32;25.98
9723;DHT22;4900;49.306;8.500;2023-05-15T12:13:10;35.88;25.55
9723;DHT22;4900;49.306;8.500;2023-05-15T12:15:38;36.20;25.40
9723;DHT22;4900;49.306;8.500;2023-05-15T12:18:05;36.02;25.10
9723;DHT22;4900;49.306;8.500;2023-05-15T12:20:33;36.29;25.52
9723;DHT22;4900;49.306;8.500;2023-05-15T12:23:00;36.57;25.66
9723;DHT22;4900;49.306;8.500;2023-05-15T12:25:25;36.27;24.56
9723;DHT22;4900;49.306;8.500;2023-05-15T12:27:51;36.20;25.17
9723;DHT22;4900;49.306;8.500;2023-05-15T12:30:17;35.33;25.32
9723;DHT22;4900;49.306;8.500;2023-05-15T12:32:43;34.94;25.99
9723;DHT22;4900;49.306;8.500;2023-05-15T12:35:09;33.82;27.00
9723;DHT22;4900;49.306;8.500;2023-05-15T12:37:36;33.13;27.67
9723;DHT22;4900;49.306;8.500;2023-05-15T12:40:03;32.16;28.14
9723;DHT22;4900;49.306;8.500;2023-05-15T12:42:43;31.54;28.85
9723;DHT22;4900;49.306;8.500;2023-05-15T12:45:17;31.52;29.83
9723;DHT22;4900;49.306;8.500;2023-05-15T12:47:44;32.22;29.43
9723;DHT22;4900;49.306;8.500;2023-05-15T12:52:55;32.02;29.24
9723;DHT22;4900;49.306;8.500;2023-05-15T12:55:25;31.72;29.40
9723;DHT22;4900;49.306;8.500;2023-05-15T12:58:17;30.83;30.59
9723;DHT22;4900;49.306;8.500;2023-05-15T13:00:44;30.92;30.78
9723;DHT22;4900;49.306;8.500;2023-05-15T13:03:11;31.17;30.69
9723;DHT22;4900;49.306;8.500;2023-05-15T13:05:41;31.15;29.97
9723;DHT22;4900;49.306;8.500;2023-05-15T13:08:07;31.33;30.57
9723;DHT22;4900;49.306;8.500;2023-05-15T13:10:34;31.71;29.27
9723;DHT22;4900;49.306;8.500;2023-05-15T13:13:00;32.58;29.04
9723;DHT22;4900;49.306;8.500;2023-05-15T13:15:30;32.84;28.35
9723;DHT22;4900;49.306;8.500;2023-05-15T13:18:05;33.13;27.89
9723;DHT22;4900;49.306;8.500;2023-05-15T13:20:37;33.12;27.74
9723;DHT22;4900;49.306;8.500;2023-05-15T13:23:03;33.22;28.45
9723;DHT22;4900;49.306;8.500;2023-05-15T13:25:29;33.37;27.93
9723;DHT22;4900;49.306;8.500;2023-05-15T13:28:02;33.84;28.20
9723;DHT22;4900;49.306;8.500;2023-05-15T13:30:29;34.32;27.42
9723;DHT22;4900;49.306;8.500;2023-05-15T13:32:54;34.42;27.06
9723;DHT22;4900;49.306;8.500;2023-05-15T13:35:21;34.95;26.42
9723;DHT22;4900;49.306;8.500;2023-05-15T13:37:47;35.07;26.48
9723;DHT22;4900;49.306;8.500;2023-05-15T13:40:13;35.73;26.51
9723;DHT22;4900;49.306;8.500;2023-05-15T13:42:40;35.67;26.38
9723;DHT22;4900;49.306;8.500;2023-05-15T13:45:13;35.77;25.95
9723;DHT22;4900;49.306;8.500;2023-05-15T13:47:40;35.61;25.70
9723;DHT22;4900;49.306;8.500;2023-05-15T13:50:10;36.24;25.50
9723;DHT22;4900;49.306;8.500;2023-05-15T13:52:36;36.33;25.22
9723;DHT22;4900;49.306;8.500;2023-05-15T13:55:02;36.18;25.48
9723;DHT22;4900;49.306;8.500;2023-05-15T13:57:29;35.53;25.42
9723;DHT22;4900;49.306;8.500;2023-05-15T13:59:55;34.91;25.81
9723;DHT22;4900;49.306;8.500;2023-05-15T14:02:21;34.97;26.42
9723;DHT22;4900;49.306;8.500;2023-05-15T14:04:50;34.43;26.92
9723;DHT22;4900;49.306;8.500;2023-05-15T14:07:16;34.09;26.78
9723;DHT22;4900;49.306;8.500;2023-05-15T14:09:41;34.27;27.30
9723;DHT22;4900;49.306;8.500;2023-05-15T14:12:07;34.53;27.71
9723;DHT22;4900;49.306;8.500;2023-05-15T14:14:34;34.50;27.11
9723;DHT22;4900;49.306;8.500;2023-05-15T14:16:59;34.53;27.01
9723;DHT22;4900;49.306;8.500;2023-05-15T14:19:25;34.67;27.64
9723;DHT22;4900;49.306;8.500;2023-05-15T14:21:51;35.07;27.30
9723;DHT22;4900;49.306;8.500;2023-05-15T14:24:17;34.97;27.61
9723;DHT22;4900;49.306;8.500;2023-05-15T14:26:42;34.12;28.30
9723;DHT22;4900;49.306;8.500;2023-05-15T14:29:10;33.42;28.40
9723;DHT22;4900;49.306;8.500;2023-05-15T14:31:35;32.84;28.14
9723;DHT22;4900;49.306;8.500;2023-05-15T14:34:01;32.49;27.62
9723;DHT22;4900;49.306;8.500;2023-05-15T14:36:26;31.90;29.40
9723;DHT22;4900;49.306;8.500;2023-05-15T14:38:52;31.81;29.95
9723;DHT22;4900;49.306;8.500;2023-05-15T14:41:17;31.72;29.94
9723;DHT22;4900;49.306;8.500;2023-05-15T14:43:43;31.51;30.40
9723;DHT22;4900;49.306;8.500;2023-05-15T14:46:08;31.33;31.15
9723;DHT22;4900;49.306;8.500;2023-05-15T14:48:34;30.86;32.41
9723;DHT22;4900;49.306;8.500;2023-05-15T14:50:59;30.47;34.17
9723;DHT22;4900;49.306;8.500;2023-05-15T14:53:25;30.00;36.05
9723;DHT22;4900;49.306;8.500;2023-05-15T14:55:51;29.64;36.96
9723;DHT22;4900;49.306;8.500;2023-05-15T14:58:16;29.25;38.32
9723;DHT22;4900;49.306;8.500;2023-05-15T15:00:42;28.93;39.11
9723;DHT22;4900;49.306;8.500;2023-05-15T15:03:09;28.63;39.93
9723;DHT22;4900;49.306;8.500;2023-05-15T15:05:34;28.45;40.31
9723;DHT22;4900;49.306;8.500;2023-05-15T15:08:07;28.24;40.07
9723;DHT22;4900;49.306;8.500;2023-05-15T15:10:34;28.01;39.88
9723;DHT22;4900;49.306;8.500;2023-05-15T15:13:00;27.78;39.71
9723;DHT22;4900;49.306;8.500;2023-05-15T15:15:26;27.47;39.18
9723;DHT22;4900;49.306;8.500;2023-05-15T15:17:52;27.10;39.43
9723;DHT22;4900;49.306;8.500;2023-05-15T15:20:19;26.88;39.10
9723;DHT22;4900;49.306;8.500;2023-05-15T15:22:46;26.55;39.82
9723;DHT22;4900;49.306;8.500;2023-05-15T15:25:12;26.34;41.39
9723;DHT22;4900;49.306;8.500;2023-05-15T15:27:38;25.54;44.77
9723;DHT22;4900;49.306;8.500;2023-05-15T15:30:06;24.85;46.17
9723;DHT22;4900;49.306;8.500;2023-05-15T15:32:32;24.33;46.18
9723;DHT22;4900;49.306;8.500;2023-05-15T15:34:58;23.93;46.47
9723;DHT22;4900;49.306;8.500;2023-05-15T15:37:25;23.58;47.10
9723;DHT22;4900;49.306;8.500;2023-05-15T15:39:50;23.41;47.80
9723;DHT22;4900;49.306;8.500;2023-05-15T15:42:15;23.03;49.02
9723;DHT22;4900;49.306;8.500;2023-05-15T15:44:41;22.69;50.15
9723;DHT22;4900;49.306;8.500;2023-05-15T15:47:07;22.44;51.70
9723;DHT22;4900;49.306;8.500;2023-05-15T15:49:33;22.13;52.20
9723;DHT22;4900;49.306;8.500;2023-05-15T15:51:58;21.69;53.42
9723;DHT22;4900;49.306;8.500;2023-05-15T15:54:24;21.58;54.60
9723;DHT22;4900;49.306;8.500;2023-05-15T15:56:52;21.37;55.90
9723;DHT22;4900;49.306;8.500;2023-05-15T15:59:18;21.31;56.36
9723;DHT22;4900;49.306;8.500;2023-05-15T16:01:43;21.17;56.62
9723;DHT22;4900;49.306;8.500;2023-05-15T16:04:09;21.21;56.48
9723;DHT22;4900;49.306;8.500;2023-05-15T16:06:35;21.20;57.51
9723;DHT22;4900;49.306;8.500;2023-05-15T16:09:01;21.23;57.60
9723;DHT22;4900;49.306;8.500;2023-05-15T16:11:27;21.23;58.18
9723;DHT22;4900;49.306;8.500;2023-05-15T16:13:53;21.19;58.53
9723;DHT22;4900;49.306;8.500;2023-05-15T16:16:19;21.10;58.49
9723;DHT22;4900;49.306;8.500;2023-05-15T16:18:45;21.07;58.79
9723;DHT22;4900;49.306;8.500;2023-05-15T16:21:10;21.00;59.33
9723;DHT22;4900;49.306;8.500;2023-05-15T16:23:37;20.89;59.80
9723;DHT22;4900;49.306;8.500;2023-05-15T16:26:04;20.81;59.73
9723;DHT22;4900;49.306;8.500;2023-05-15T16:28:30;20.74;59.84
9723;DHT22;4900;49.306;8.500;2023-05-15T16:30:57;20.62;59.94
9723;DHT22;4900;49.306;8.500;2023-05-15T16:33:23;20.49;60.21